createdAt,value
2023-03-26T00:01:36.836Z,1.62
2023-03-26T00:04:06.760Z,1.75
2023-03-26T00:06:39.161Z,0.43
2023-03-26T00:09:09.072Z,2.47
2023-03-26T00:11:36.420Z,1.45
2023-03-26T00:14:03.930Z,2.15
2023-03-26T00:16:32.091Z,0.88
2023-03-26T00:19:00.115Z,0.65
2023-03-26T00:21:29.021Z,0.75
2023-03-26T00:23:59.679Z,1.67
2023-03-26T00:26:29.585Z,0.75
2023-03-26T00:28:58.145Z,0.70
2023-03-26T00:31:25.353Z,1.73
2023-03-26T00:33:56.796Z,0.50
2023-03-26T00:36:25.880Z,3.78
2023-03-26T00:38:53.859Z,1.50
2023-03-26T00:41:25.511Z,1.92
2023-03-26T00:43:56.398Z,0.70
2023-03-26T00:46:28.397Z,4.10
2023-03-26T00:48:58.909Z,0.98
2023-03-26T00:51:27.808Z,2.12
2023-03-26T00:53:55.104Z,2.33
2023-03-26T00:56:22.540Z,1.87
2023-03-26T00:58:52.673Z,1.65
2023-03-26T01:01:27.540Z,2.25
2023-03-26T01:06:36.470Z,2.20
2023-03-26T01:09:17.480Z,2.35
2023-03-26T01:11:45.467Z,1.65
2023-03-26T01:14:33.057Z,2.03
2023-03-26T01:17:02.075Z,1.33
2023-03-26T01:19:45.376Z,1.45
2023-03-26T01:22:22.253Z,0.95
2023-03-26T01:24:53.855Z,1.33
2023-03-26T01:27:46.083Z,0.77
2023-03-26T01:30:24.391Z,0.73
2023-03-26T01:33:01.013Z,1.20
2023-03-26T01:35:34.205Z,0.90
2023-03-26T01:38:17.049Z,2.08
2023-03-26T01:40:51.173Z,2.62
2023-03-26T01:43:26.254Z,0.77
2023-03-26T01:45:54.223Z,1.55
2023-03-26T01:48:21.637Z,1.80
2023-03-26T01:50:51.347Z,1.15
2023-03-26T01:53:18.881Z,0.98
2023-03-26T01:56:12.816Z,0.55
2023-03-26T01:58:49.695Z,0.68
2023-03-26T02:01:29.529Z,0.50
2023-03-26T02:04:06.454Z,1.52
2023-03-26T02:06:43.507Z,0.82
2023-03-26T02:09:15.848Z,0.50
2023-03-26T02:11:43.686Z,0.43
2023-03-26T02:14:12.801Z,0.70
2023-03-26T02:16:40.138Z,0.88
2023-03-26T02:19:15.502Z,1.87
2023-03-26T02:21:43.110Z,0.52
2023-03-26T02:24:10.573Z,0.98
2023-03-26T02:26:38.259Z,0.50
2023-03-26T02:29:05.887Z,0.60
2023-03-26T02:31:33.672Z,2.05
2023-03-26T02:34:01.162Z,0.70
2023-03-26T02:36:29.364Z,1.17
2023-03-26T02:38:58.084Z,0.68
2023-03-26T02:41:25.464Z,0.45
2023-03-26T02:43:53.922Z,2.08
2023-03-26T02:46:22.140Z,0.45
2023-03-26T02:48:50.339Z,0.80
2023-03-26T02:51:18.348Z,0.47
2023-03-26T02:53:46.162Z,1.98
2023-03-26T02:56:14.599Z,1.60
2023-03-26T02:58:43.702Z,0.82
2023-03-26T03:01:10.963Z,0.40
2023-03-26T03:03:38.793Z,1.20
2023-03-26T03:06:09.071Z,0.65
2023-03-26T03:08:36.576Z,1.70
2023-03-26T03:11:15.660Z,5.68
2023-03-26T03:13:44.619Z,0.68
2023-03-26T03:16:12.256Z,0.82
2023-03-26T03:18:39.832Z,0.30
2023-03-26T03:21:07.584Z,1.02
2023-03-26T03:23:34.910Z,1.42
2023-03-26T03:26:03.240Z,1.27
2023-03-26T03:28:31.214Z,1.55
2023-03-26T03:30:59.143Z,0.98
2023-03-26T03:33:27.579Z,1.08
2023-03-26T03:35:55.237Z,0.95
2023-03-26T03:38:22.784Z,1.37
2023-03-26T03:40:50.310Z,0.68
2023-03-26T03:43:18.183Z,0.60
2023-03-26T03:45:47.395Z,1.37
2023-03-26T03:48:14.823Z,0.43
2023-03-26T03:50:42.417Z,2.05
2023-03-26T03:53:10.506Z,1.52
2023-03-26T03:55:38.264Z,0.60
2023-03-26T03:58:06.116Z,0.93
2023-03-26T04:00:33.300Z,0.75
2023-03-26T04:03:06.306Z,1.02
2023-03-26T04:05:33.878Z,1.23
2023-03-26T04:08:01.344Z,2.12
2023-03-26T04:10:29.266Z,1.42
2023-03-26T04:12:58.626Z,1.45
2023-03-26T04:15:27.109Z,1.92
2023-03-26T04:17:54.369Z,15.48
2023-03-26T04:20:22.121Z,1.10
2023-03-26T04:22:50.011Z,2.97
2023-03-26T04:25:17.504Z,1.55
2023-03-26T04:27:46.231Z,27.17
2023-03-26T04:30:20.670Z,26.02
2023-03-26T04:32:48.995Z,7.95
2023-03-26T04:35:17.402Z,4.60
2023-03-26T04:37:46.044Z,51.33
2023-03-26T04:40:19.508Z,75.43
2023-03-26T04:42:47.842Z,36.38
2023-03-26T04:45:17.775Z,12.15
2023-03-26T04:47:46.701Z,7.43
2023-03-26T04:50:14.756Z,19.80
2023-03-26T04:52:44.555Z,6.65
2023-03-26T04:55:25.292Z,7.03
2023-03-26T04:58:05.475Z,5.25
2023-03-26T05:00:35.181Z,4.55
2023-03-26T05:03:02.365Z,6.07
2023-03-26T05:05:29.713Z,15.98
2023-03-26T05:07:57.827Z,5.10
2023-03-26T05:10:25.384Z,10.85
2023-03-26T05:12:52.899Z,7.18
2023-03-26T05:15:21.971Z,4.35
2023-03-26T05:17:51.385Z,4.80
2023-03-26T05:20:22.079Z,2.35
2023-03-26T05:22:50.291Z,6.03
2023-03-26T05:25:19.622Z,5.75
2023-03-26T05:27:47.090Z,2.78
2023-03-26T05:30:17.204Z,3.28
2023-03-26T05:32:44.833Z,5.90
2023-03-26T05:35:12.714Z,6.20
2023-03-26T05:37:40.349Z,6.07
2023-03-26T05:40:12.356Z,7.07
2023-03-26T05:42:42.741Z,5.73
2023-03-26T05:45:12.253Z,5.60
2023-03-26T05:47:39.627Z,3.33
2023-03-26T05:50:08.085Z,3.83
2023-03-26T05:52:36.210Z,3.25
2023-03-26T05:55:08.344Z,3.87
2023-03-26T05:57:42.640Z,2.35
2023-03-26T06:00:18.508Z,3.05
2023-03-26T06:02:46.906Z,2.33
2023-03-26T06:05:15.580Z,16.73
2023-03-26T06:07:43.908Z,4.80
2023-03-26T06:10:18.037Z,5.70
2023-03-26T06:12:46.338Z,6.57
2023-03-26T06:15:13.590Z,4.10
2023-03-26T06:17:41.121Z,2.22
2023-03-26T06:20:11.285Z,3.83
2023-03-26T06:22:38.602Z,3.45
2023-03-26T06:25:07.990Z,2.33
2023-03-26T06:27:35.699Z,3.85
2023-03-26T06:30:03.533Z,4.62
2023-03-26T06:32:32.424Z,2.95
2023-03-26T06:35:00.056Z,2.33
2023-03-26T06:37:27.314Z,3.25
2023-03-26T06:39:55.419Z,6.70
2023-03-26T06:43:07.052Z,6.78
2023-03-26T06:45:10.939Z,3.62
2023-03-26T06:47:39.810Z,3.78
2023-03-26T06:50:10.129Z,3.12
2023-03-26T06:52:38.058Z,3.17
2023-03-26T06:55:08.570Z,4.75
2023-03-26T06:57:38.581Z,3.75
2023-03-26T07:00:08.682Z,4.00
2023-03-26T07:02:39.678Z,4.10
2023-03-26T07:05:21.683Z,3.75
2023-03-26T07:07:54.851Z,3.62
2023-03-26T07:10:23.372Z,9.25
2023-03-26T07:12:50.845Z,60.08
2023-03-26T07:15:18.820Z,13.62
2023-03-26T07:17:46.118Z,3.85
2023-03-26T07:20:13.596Z,3.85
2023-03-26T07:22:42.082Z,3.83
2023-03-26T07:25:10.830Z,7.45
2023-03-26T07:28:25.429Z,8.00
2023-03-26T07:31:03.612Z,3.72
2023-03-26T07:33:48.127Z,4.00
2023-03-26T07:36:40.266Z,6.60
2023-03-26T07:39:19.126Z,3.53
2023-03-26T07:41:54.521Z,8.25
2023-03-26T07:44:38.226Z,10.98
2023-03-26T07:47:22.315Z,6.30
2023-03-26T07:49:50.325Z,3.55
2023-03-26T07:52:18.352Z,3.55
2023-03-26T07:54:46.224Z,3.22
2023-03-26T07:57:24.638Z,3.37
2023-03-26T08:00:12.879Z,5.47
2023-03-26T08:03:01.319Z,2.45
2023-03-26T08:05:35.419Z,4.80
2023-03-26T08:08:13.836Z,10.52
2023-03-26T08:11:19.400Z,10.85
2023-03-26T08:14:11.849Z,8.32
2023-03-26T08:16:51.002Z,9.40
2023-03-26T08:19:51.165Z,22.42
2023-03-26T08:22:26.376Z,3.62
2023-03-26T08:25:05.643Z,3.62
2023-03-26T08:27:41.895Z,2.83
2023-03-26T08:30:23.437Z,3.55
2023-03-26T08:33:04.980Z,3.42
2023-03-26T08:35:33.360Z,2.80
2023-03-26T08:38:00.843Z,5.03
2023-03-26T08:40:49.304Z,3.33
2023-03-26T08:43:39.152Z,3.20
2023-03-26T08:46:57.527Z,3.83
2023-03-26T08:49:42.929Z,10.82
2023-03-26T08:52:37.850Z,5.53
2023-03-26T08:55:43.986Z,8.07
2023-03-26T08:58:48.698Z,3.70
2023-03-26T09:01:22.135Z,5.28
2023-03-26T09:04:10.440Z,4.85
2023-03-26T09:07:15.436Z,14.20
2023-03-26T09:10:04.226Z,15.93
2023-03-26T09:13:02.121Z,32.10
2023-03-26T09:15:38.254Z,4.90
2023-03-26T09:18:11.526Z,7.62
2023-03-26T09:20:57.272Z,6.90
2023-03-26T09:23:43.919Z,4.78
2023-03-26T09:26:11.447Z,2.25
2023-03-26T09:28:54.295Z,4.43
2023-03-26T09:31:57.121Z,4.35
2023-03-26T09:34:40.304Z,3.78
2023-03-26T09:37:18.306Z,2.03
2023-03-26T09:39:53.549Z,3.72
2023-03-26T09:42:29.960Z,2.90
2023-03-26T09:45:05.148Z,6.30
2023-03-26T09:47:50.625Z,7.07
2023-03-26T09:50:40.500Z,2.62
2023-03-26T09:53:32.231Z,2.03
2023-03-26T09:56:10.912Z,1.98
2023-03-26T09:58:48.324Z,3.97
2023-03-26T10:01:27.097Z,4.22
2023-03-26T10:04:00.577Z,1.80
2023-03-26T10:06:49.532Z,1.87
2023-03-26T10:09:30.370Z,3.95
2023-03-26T10:12:06.469Z,3.60
2023-03-26T10:14:49.099Z,2.12
2023-03-26T10:17:32.007Z,2.22
2023-03-26T10:20:09.451Z,4.15
2023-03-26T10:22:45.717Z,7.10
2023-03-26T10:25:22.185Z,5.70
2023-03-26T10:28:26.740Z,11.75
2023-03-26T10:31:17.134Z,5.32
2023-03-26T10:34:28.351Z,1.73
2023-03-26T10:36:59.666Z,2.78
2023-03-26T10:40:05.971Z,0.90
2023-03-26T10:43:07.393Z,1.90
2023-03-26T10:45:51.458Z,3.42
2023-03-26T10:48:51.351Z,1.85
2023-03-26T10:51:42.615Z,1.35
2023-03-26T10:54:21.965Z,1.48
2023-03-26T10:56:50.149Z,2.97
2023-03-26T10:59:19.045Z,5.07
2023-03-26T11:02:05.055Z,3.25
2023-03-26T11:04:57.314Z,3.87
2023-03-26T11:07:35.002Z,21.35
2023-03-26T11:10:05.341Z,2.58
2023-03-26T11:12:32.386Z,8.45
2023-03-26T11:15:08.758Z,8.98
2023-03-26T11:18:15.440Z,4.03
2023-03-26T11:20:50.955Z,5.45
2023-03-26T11:23:40.600Z,3.22
2023-03-26T11:26:41.630Z,1.75
2023-03-26T11:29:33.651Z,1.02
2023-03-26T11:32:14.096Z,6.47
2023-03-26T11:35:40.773Z,1.52
2023-03-26T11:38:18.347Z,2.35
2023-03-26T11:40:50.751Z,1.67
2023-03-26T11:43:22.534Z,3.83
2023-03-26T11:45:51.656Z,1.27
2023-03-26T11:48:38.894Z,0.95
2023-03-26T11:51:13.067Z,5.25
2023-03-26T11:53:40.436Z,3.15
2023-03-26T11:56:14.803Z,10.48
2023-03-26T11:58:53.932Z,0.85
2023-03-26T12:01:30.348Z,18.35
2023-03-26T12:04:04.554Z,5.95
2023-03-26T12:09:00.892Z,0.52
2023-03-26T12:11:32.593Z,1.00
2023-03-26T12:14:03.765Z,3.47
2023-03-26T12:16:31.088Z,1.67
2023-03-26T12:19:06.258Z,0.80
2023-03-26T12:21:46.178Z,2.40
2023-03-26T12:24:29.819Z,2.47
2023-03-26T12:27:21.939Z,0.47
2023-03-26T12:29:55.089Z,5.40
2023-03-26T12:32:29.672Z,1.70
2023-03-26T12:35:07.619Z,1.00
2023-03-26T12:37:39.370Z,4.50
2023-03-26T12:40:34.319Z,5.62
2023-03-26T12:44:53.471Z,2.72
2023-03-26T12:46:03.720Z,1.37
2023-03-26T12:48:46.216Z,8.93
2023-03-26T12:51:19.666Z,2.05
2023-03-26T12:54:16.202Z,1.40
2023-03-26T12:56:45.535Z,5.18
2023-03-26T12:59:47.492Z,1.00
2023-03-26T13:02:38.869Z,2.08
2023-03-26T13:05:37.516Z,1.35
2023-03-26T13:08:32.804Z,2.10
2023-03-26T13:11:03.634Z,3.08
2023-03-26T13:13:38.372Z,4.78
2023-03-26T13:16:27.616Z,0.88
2023-03-26T13:19:14.272Z,0.60
2023-03-26T13:21:57.202Z,1.15
2023-03-26T13:24:38.196Z,4.72
2023-03-26T13:27:47.530Z,3.65
2023-03-26T13:30:14.641Z,4.85
2023-03-26T13:33:01.175Z,2.28
2023-03-26T13:35:28.517Z,7.70
2023-03-26T13:38:04.677Z,2.75
2023-03-26T13:40:40.494Z,2.42
2023-03-26T13:43:32.729Z,5.80
2023-03-26T13:45:59.927Z,1.98
2023-03-26T13:48:39.656Z,11.90
2023-03-26T13:51:12.599Z,8.23
2023-03-26T13:54:00.812Z,2.60
2023-03-26T13:56:34.479Z,1.60
2023-03-26T14:01:41.018Z,3.17
2023-03-26T14:04:32.555Z,1.45
2023-03-26T14:07:19.043Z,2.92
2023-03-26T14:09:57.248Z,2.53
2023-03-26T14:12:29.945Z,5.05
2023-03-26T14:15:12.752Z,4.67
2023-03-26T14:17:51.259Z,4.80
2023-03-26T14:20:19.979Z,2.20
2023-03-26T14:23:20.559Z,3.78
2023-03-26T14:26:18.597Z,1.30
2023-03-26T14:28:57.766Z,4.45
2023-03-26T14:31:32.558Z,3.25
2023-03-26T14:34:38.474Z,6.75
2023-03-26T14:37:28.212Z,3.35
2023-03-26T14:39:58.228Z,2.08
2023-03-26T14:42:43.780Z,3.47
2023-03-26T14:45:23.235Z,3.47
2023-03-26T14:48:22.780Z,3.60
2023-03-26T14:50:56.273Z,4.47
2023-03-26T14:53:29.913Z,6.90
2023-03-26T14:56:20.500Z,2.58
2023-03-26T14:59:11.166Z,8.43
2023-03-26T15:02:10.001Z,2.47
2023-03-26T15:04:52.142Z,0.90
2023-03-26T15:07:31.347Z,1.35
2023-03-26T15:10:26.497Z,0.95
2023-03-26T15:13:25.304Z,0.93
2023-03-26T15:16:29.676Z,4.82
2023-03-26T15:19:34.738Z,1.60
2023-03-26T15:22:25.608Z,3.53
2023-03-26T15:25:02.471Z,1.52
2023-03-26T15:27:49.993Z,13.73
2023-03-26T15:30:32.882Z,1.60
2023-03-26T15:33:27.145Z,11.82
2023-03-26T15:36:16.799Z,2.25
2023-03-26T15:38:49.748Z,2.78
2023-03-26T15:41:24.687Z,3.93
2023-03-26T15:44:24.340Z,4.25
2023-03-26T15:46:51.645Z,6.80
2023-03-26T15:49:35.819Z,1.27
2023-03-26T15:54:47.174Z,6.22
2023-03-26T15:57:19.976Z,3.55
2023-03-26T15:59:59.341Z,6.22
2023-03-26T16:02:29.709Z,2.53
2023-03-26T16:05:37.139Z,3.03
2023-03-26T16:08:30.729Z,6.55
2023-03-26T16:10:59.231Z,2.12
2023-03-26T16:13:26.561Z,4.57
2023-03-26T16:16:03.705Z,2.10
2023-03-26T16:18:37.312Z,3.33
2023-03-26T16:21:36.606Z,3.53
2023-03-26T16:24:07.392Z,14.30
2023-03-26T16:26:43.447Z,8.13
2023-03-26T16:29:18.063Z,12.50
2023-03-26T16:32:18.088Z,6.68
2023-03-26T16:34:53.229Z,6.87
2023-03-26T16:37:37.488Z,19.30
2023-03-26T16:40:26.209Z,33.17
2023-03-26T16:43:11.368Z,25.23
2023-03-26T16:46:00.323Z,21.87
2023-03-26T16:48:58.432Z,45.03
2023-03-26T16:52:03.814Z,11.32
2023-03-26T16:54:43.428Z,9.95
2023-03-26T16:57:38.535Z,13.35
2023-03-26T17:00:23.395Z,15.45
2023-03-26T17:03:15.339Z,18.15
2023-03-26T17:05:56.572Z,12.07
2023-03-26T17:08:35.928Z,18.42
2023-03-26T17:11:06.796Z,16.55
2023-03-26T17:13:34.190Z,24.20
2023-03-26T17:16:10.936Z,13.43
2023-03-26T17:18:56.756Z,18.20
2023-03-26T17:21:49.889Z,12.50
2023-03-26T17:24:54.545Z,40.65
2023-03-26T17:27:25.324Z,49.00
2023-03-26T17:30:03.535Z,40.88
2023-03-26T17:32:54.511Z,32.63
2023-03-26T17:35:47.458Z,39.58
2023-03-26T17:38:17.735Z,53.55
2023-03-26T17:41:19.724Z,31.48
2023-03-26T17:43:50.039Z,123.38
2023-03-26T17:46:37.502Z,58.83
2023-03-26T17:49:22.287Z,64.57
2023-03-26T17:51:58.131Z,39.55
2023-03-26T17:54:28.637Z,57.95
2023-03-26T17:57:03.413Z,15.57
2023-03-26T17:59:31.944Z,33.28
2023-03-26T18:02:03.601Z,11.15
2023-03-26T18:04:38.002Z,38.78
2023-03-26T18:07:20.787Z,51.63
2023-03-26T18:10:10.895Z,116.50
2023-03-26T18:13:08.411Z,116.18
2023-03-26T18:15:56.830Z,75.82
2023-03-26T18:18:50.310Z,80.28
2023-03-26T18:21:27.370Z,47.38
2023-03-26T18:23:59.622Z,76.35
2023-03-26T18:26:42.812Z,43.95
2023-03-26T18:29:26.071Z,65.22
2023-03-26T18:32:00.539Z,38.57
2023-03-26T18:34:33.238Z,45.95
2023-03-26T18:37:16.956Z,56.03
2023-03-26T18:39:59.242Z,37.28
2023-03-26T18:42:27.527Z,110.12
2023-03-26T18:44:59.920Z,191.55
2023-03-26T18:47:30.107Z,45.22
2023-03-26T18:49:58.433Z,57.95
2023-03-26T18:52:27.844Z,94.07
2023-03-26T18:54:56.253Z,134.07
2023-03-26T18:57:25.967Z,58.70
2023-03-26T18:59:55.896Z,136.10
2023-03-26T19:02:24.975Z,115.07
2023-03-26T19:04:54.368Z,86.72
2023-03-26T19:07:25.102Z,62.58
2023-03-26T19:09:56.509Z,61.67
2023-03-26T19:12:28.974Z,59.80
2023-03-26T19:15:11.118Z,50.42
2023-03-26T19:17:44.877Z,25.10
2023-03-26T19:20:19.503Z,32.33
2023-03-26T19:25:42.001Z,22.58
2023-03-26T19:28:37.747Z,49.28
2023-03-26T19:31:12.246Z,21.60
2023-03-26T19:36:14.623Z,24.37
2023-03-26T19:38:53.002Z,20.12
2023-03-26T19:41:26.591Z,31.17
2023-03-26T19:43:55.699Z,59.33
2023-03-26T19:46:24.608Z,45.22
2023-03-26T19:48:54.259Z,23.45
2023-03-26T19:51:25.760Z,22.80
2023-03-26T19:53:55.725Z,21.90
2023-03-26T19:56:23.223Z,23.10
2023-03-26T19:58:50.826Z,33.95
2023-03-26T20:01:29.638Z,31.83
2023-03-26T20:04:00.842Z,36.25
2023-03-26T20:06:43.179Z,52.10
2023-03-26T20:09:13.024Z,43.90
2023-03-26T20:11:40.899Z,25.23
2023-03-26T20:14:25.885Z,24.75
2023-03-26T20:16:53.858Z,22.75
2023-03-26T20:19:21.200Z,15.15
2023-03-26T20:21:48.948Z,14.35
2023-03-26T20:24:17.585Z,13.93
2023-03-26T20:26:46.264Z,17.58
2023-03-26T20:29:14.259Z,10.57
2023-03-26T20:31:42.629Z,10.38
2023-03-26T20:34:16.467Z,10.77
2023-03-26T20:36:45.608Z,8.77
2023-03-26T20:39:13.388Z,9.57
2023-03-26T20:41:45.344Z,7.62
2023-03-26T20:44:16.651Z,7.28
2023-03-26T20:46:45.055Z,9.38
2023-03-26T20:49:12.868Z,9.48
2023-03-26T20:51:41.993Z,11.12
2023-03-26T20:54:23.319Z,10.63
2023-03-26T20:56:52.463Z,9.48
2023-03-26T20:59:22.689Z,10.32
2023-03-26T21:01:50.959Z,6.72
2023-03-26T21:04:19.569Z,7.78
2023-03-26T21:06:47.247Z,11.02
2023-03-26T21:09:17.788Z,21.62
2023-03-26T21:11:52.576Z,14.87
2023-03-26T21:14:33.469Z,10.63
2023-03-26T21:17:02.057Z,11.75
2023-03-26T21:19:29.720Z,6.62
2023-03-26T21:22:03.010Z,5.18
2023-03-26T21:24:54.460Z,4.35
2023-03-26T21:27:33.839Z,6.00
2023-03-26T21:30:01.901Z,4.07
2023-03-26T21:32:31.613Z,5.55
2023-03-26T21:34:59.721Z,4.60
2023-03-26T21:37:27.735Z,6.32
2023-03-26T21:39:55.263Z,4.43
2023-03-26T21:42:26.872Z,5.25
2023-03-26T21:44:55.343Z,6.37
2023-03-26T21:47:23.085Z,5.03
2023-03-26T21:49:51.008Z,3.60
2023-03-26T21:52:19.754Z,3.65
2023-03-26T21:54:49.881Z,3.47
2023-03-26T21:57:46.934Z,4.32
2023-03-26T22:00:18.413Z,1.98
2023-03-26T22:02:58.235Z,2.33
2023-03-26T22:05:37.054Z,3.78
2023-03-26T22:08:05.485Z,3.10
2023-03-26T22:10:32.765Z,5.25
2023-03-26T22:12:59.970Z,2.35
2023-03-26T22:15:30.626Z,1.92
2023-03-26T22:18:02.036Z,1.33
2023-03-26T22:20:29.899Z,2.65
2023-03-26T22:22:57.370Z,2.67
2023-03-26T22:25:24.573Z,2.03
2023-03-26T22:27:52.751Z,3.47
2023-03-26T22:30:22.948Z,3.80
2023-03-26T22:32:50.271Z,3.10
2023-03-26T22:35:18.060Z,3.90
2023-03-26T22:37:46.128Z,2.62
2023-03-26T22:40:13.678Z,3.58
2023-03-26T22:42:41.569Z,6.45
2023-03-26T22:45:10.023Z,3.25
2023-03-26T22:47:38.286Z,3.15
2023-03-26T22:50:10.068Z,2.85
2023-03-26T22:52:37.473Z,1.95
2023-03-26T22:55:05.414Z,1.42
2023-03-26T22:57:33.493Z,2.50
2023-03-26T23:00:12.452Z,2.42
2023-03-26T23:02:40.792Z,1.45
2023-03-26T23:05:08.397Z,2.03
2023-03-26T23:07:35.622Z,3.28
2023-03-26T23:10:04.811Z,2.78
2023-03-26T23:12:31.991Z,2.92
2023-03-26T23:14:59.234Z,4.87
2023-03-26T23:17:27.068Z,3.00
2023-03-26T23:19:54.544Z,1.92
2023-03-26T23:22:22.177Z,1.77
2023-03-26T23:24:50.261Z,1.87
2023-03-26T23:27:17.897Z,5.32
2023-03-26T23:29:50.211Z,2.42
2023-03-26T23:32:24.665Z,1.92
2023-03-26T23:34:52.695Z,2.05
2023-03-26T23:37:23.202Z,2.92
2023-03-26T23:39:51.475Z,3.75
2023-03-26T23:42:29.055Z,2.75
2023-03-26T23:44:57.477Z,2.30
2023-03-26T23:47:25.085Z,2.87
2023-03-26T23:49:52.292Z,3.33
2023-03-26T23:52:19.476Z,4.07
2023-03-26T23:54:47.366Z,3.85
2023-03-26T23:57:14.742Z,4.35
2023-03-26T23:59:41.959Z,2.72
